Time;durP1;ratioP1;P1;durP2;ratioP2;P2;SDS_P1;SDS_P2;PMS_P1;PMS_P2;Temp;Humidity;BMP_temperature;BMP_pressure;BME280_temperature;BME280_humidity;BME280_pressure;Samples;Min_cycle;Max_cycle;Signal;HPM_P1;HPM_P2
2024/02/12 00:01:10;;;;;;;;;1.00;1.00;;;;;-144.24;100.00;96195.59;5090115;27;46646;-74
2024/02/12 00:03:38;;;;;;;;;3.00;1.33;;;;;-144.24;100.00;96159.09;5096941;27;45603;-73
2024/02/12 00:06:04;;;;;;;;;2.00;1.00;;;;;-144.24;100.00;96201.69;5096736;27;45387;-73
2024/02/12 00:08:30;;;;;;;;;4.00;1.00;;;;;-144.24;100.00;96319.31;5091604;27;45469;-74
2024/02/12 00:10:58;;;;;;;;;3.00;1.00;;;;;-144.24;100.00;96278.75;5088287;27;46142;-74
2024/02/12 00:13:23;;;;;;;;;3.67;1.00;;;;;-144.24;100.00;96483.63;5094294;27;45284;-73
2024/02/12 00:15:49;;;;;;;;;0.00;0.00;;;;;-144.24;100.00;96282.81;5090169;27;53599;-73
2024/02/12 00:18:14;;;;;;;;;3.00;1.33;;;;;-144.24;100.00;96337.56;5092064;27;45662;-73
2024/02/12 00:20:41;;;;;;;;;3.33;1.00;;;;;-144.24;100.00;96481.59;5091912;27;46686;-74
2024/02/12 00:23:06;;;;;;;;;1.00;1.00;;;;;-144.24;100.00;96512.00;5096570;27;45361;-73
2024/02/12 00:25:33;;;;;;;;;2.67;1.00;;;;;-144.24;100.00;96727.03;5085924;27;45446;-74
2024/02/12 00:27:58;;;;;;;;;0.33;0.33;;;;;-144.24;100.00;96729.06;5071329;27;45461;-74
2024/02/12 00:30:24;;;;;;;;;1.00;1.00;;;;;-144.24;100.00;96834.53;5095292;27;60959;-73
2024/02/12 00:32:49;;;;;;;;;1.00;1.00;;;;;-144.24;100.00;96846.72;5074546;27;45857;-74
2024/02/12 00:35:15;;;;;;;;;0.00;0.00;;;;;-144.24;100.00;96871.06;5092709;27;56546;-74
2024/02/12 00:37:41;;;;;;;;;5.33;1.00;;;;;-144.24;100.00;96824.41;5094800;27;45351;-73
2024/02/12 00:40:08;;;;;;;;;1.00;1.00;;;;;-144.24;100.00;96820.34;5092770;27;46537;-74
2024/02/12 00:42:34;;;;;;;;;2.00;0.00;;;;;-144.24;100.00;96765.56;5096006;27;45407;-73
2024/02/12 00:45:03;;;;;;;;;1.00;1.00;;;;;-144.24;100.00;96933.94;5086363;27;45521;-74
2024/02/12 00:47:29;;;;;;;;;1.00;1.00;;;;;-144.24;100.00;96692.53;5093501;27;45257;-74
2024/02/12 00:49:54;;;;;;;;;6.67;1.67;;;;;-144.24;100.00;96883.22;5088501;27;46754;-74
2024/02/12 00:52:23;;;;;;;;;1.00;1.00;;;;;-144.24;100.00;96883.22;5090575;27;45434;-73
2024/02/12 00:54:51;;;;;;;;;2.00;0.00;;;;;-144.24;100.00;96834.53;5089970;27;45374;-73
2024/02/12 00:57:17;;;;;;;;;0.00;0.00;;;;;-144.24;100.00;96820.34;5097117;27;45299;-74
2024/02/12 00:59:42;;;;;;;;;2.00;0.67;;;;;-144.24;100.00;97155.06;5096180;27;46517;-73
2024/02/12 01:02:11;;;;;;;;;0.00;0.00;;;;;-144.24;100.00;97053.63;5068985;27;72139;-73
2024/02/12 01:04:37;;;;;;;;;1.00;1.00;;;;;-144.24;100.00;96956.25;5093620;27;45399;-73
2024/02/12 01:07:03;;;;;;;;;1.33;0.33;;;;;-144.24;100.00;97043.50;5094642;27;45489;-73
2024/02/12 01:09:28;;;;;;;;;0.67;0.67;;;;;-144.24;100.00;97004.94;5096111;27;47197;-73
2024/02/12 01:11:55;;;;;;;;;3.33;1.67;;;;;-144.24;100.00;97053.63;5093474;27;45437;-74
2024/02/12 01:14:21;;;;;;;;;2.00;1.00;;;;;-144.24;100.00;97173.31;5093116;27;45358;-73
2024/02/12 01:16:46;;;;;;;;;2.67;1.00;;;;;-144.24;100.00;97063.78;5093607;27;45403;-74
2024/02/12 01:19:11;;;;;;;;;3.00;0.00;;;;;-144.24;100.00;97061.75;5096789;27;45436;-73
2024/02/12 01:21:37;;;;;;;;;3.00;1.33;;;;;-144.24;100.00;97059.72;5089535;27;68843;-73
2024/02/12 01:24:04;;;;;;;;;3.00;1.00;;;;;-144.24;100.00;97311.28;5087906;27;45296;-73
2024/02/12 01:26:34;;;;;;;;;2.00;0.33;;;;;-144.24;100.00;97106.38;5093565;27;45271;-74
2024/02/12 01:29:03;;;;;;;;;1.00;1.00;;;;;-144.24;100.00;97055.66;5096815;27;46640;-74
2024/02/12 01:31:29;;;;;;;;;4.67;1.00;;;;;-144.24;100.00;97126.66;5088454;27;45462;-74
2024/02/12 01:33:54;;;;;;;;;2.33;1.00;;;;;-144.24;100.00;97238.25;5088006;27;45518;-74
2024/02/12 01:36:21;;;;;;;;;1.33;0.00;;;;;-144.24;100.00;97136.81;5088254;27;45432;-74
2024/02/12 01:38:46;;;;;;;;;0.00;0.00;;;;;-144.24;100.00;97136.81;5088326;27;45977;-74
2024/02/12 01:41:11;;;;;;;;;3.00;1.00;;;;;-144.24;100.00;97339.69;5094584;27;45454;-73
2024/02/12 01:43:38;;;;;;;;;5.33;0.00;;;;;-144.24;100.00;97215.94;5091466;27;63371;-73
2024/02/12 01:46:05;;;;;;;;;3.00;0.00;;;;;-144.24;100.00;97240.28;5094572;27;45343;-74
2024/02/12 01:48:31;;;;;;;;;3.67;0.33;;;;;-144.24;100.00;97309.25;5090602;27;45800;-74
2024/02/12 01:51:06;;;;;;;;;2.00;1.00;;;;;-144.24;100.00;97238.25;5086100;27;45337;-73
2024/02/12 01:53:33;;;;;;;;;1.67;1.00;;;;;-144.24;100.00;97262.59;5090001;27;45429;-73
2024/02/12 01:56:00;;;;;;;;;2.00;0.33;;;;;-144.24;100.00;97226.06;5094513;27;45164;-73
2024/02/12 01:58:25;;;;;;;;;1.67;1.67;;;;;-144.24;100.00;97191.59;5085988;27;46484;-73
2024/02/12 02:00:51;;;;;;;;;0.00;0.00;;;;;-144.24;100.00;97266.66;5094615;27;49741;-73
2024/02/12 02:03:17;;;;;;;;;2.00;2.00;;;;;-144.24;100.00;97439.09;5089388;27;64820;-74
2024/02/12 02:05:46;;;;;;;;;0.00;0.00;;;;;-144.24;100.00;97357.94;5075129;27;45901;-74
2024/02/12 02:08:12;;;;;;;;;2.67;1.00;;;;;-144.24;100.00;97420.84;5075664;27;45387;-74
2024/02/12 02:10:38;;;;;;;;;1.00;1.00;;;;;-144.24;100.00;97467.50;5095469;27;45294;-73
2024/02/12 02:13:06;;;;;;;;;0.67;0.00;;;;;-144.24;100.00;97489.81;5071838;27;45541;-74
2024/02/12 02:15:34;;;;;;;;;3.67;1.00;;;;;-144.24;100.00;97400.56;5092912;27;45402;-74
2024/02/12 02:18:01;;;;;;;;;2.00;1.00;;;;;-144.24;100.00;97317.38;5089071;27;45979;-74
2024/02/12 02:20:26;;;;;;;;;7.33;1.00;;;;;-144.24;100.00;97475.63;5086491;27;45540;-74
2024/02/12 02:22:52;;;;;;;;;7.00;2.00;;;;;-144.24;100.00;97485.75;5088194;27;51178;-73
2024/02/12 02:25:20;;;;;;;;;0.00;0.00;;;;;-144.24;100.00;97540.53;5085922;27;45517;-74
2024/02/12 02:27:45;;;;;;;;;4.33;0.00;;;;;-144.24;100.00;97534.47;5088180;27;48659;-74
2024/02/12 02:30:11;;;;;;;;;4.00;1.00;;;;;-144.24;100.00;97357.94;5096000;27;45277;-74
2024/02/12 02:32:40;;;;;;;;;1.00;0.00;;;;;-144.24;100.00;97435.03;5095312;27;45295;-74
2024/02/12 02:35:06;;;;;;;;;3.00;1.00;;;;;-144.24;100.00;97692.72;5095580;27;57826;-74
2024/02/12 02:37:31;;;;;;;;;1.33;1.33;;;;;-144.24;100.00;97690.69;5091215;27;46368;-74
2024/02/12 02:39:57;;;;;;;;;5.00;0.00;;;;;-144.24;100.00;97828.66;5074468;27;46182;-73
2024/02/12 02:42:22;;;;;;;;;2.33;1.00;;;;;-144.24;100.00;97887.50;5090997;27;61833;-74
2024/02/12 02:44:48;;;;;;;;;1.67;1.67;;;;;-144.24;100.00;97863.16;5080699;27;45521;-73
2024/02/12 02:47:14;;;;;;;;;3.00;1.00;;;;;-144.24;100.00;97968.66;5085999;27;46632;-73
2024/02/12 02:49:41;;;;;;;;;4.00;0.67;;;;;-144.24;100.00;97826.63;5088325;27;45691;-73
2024/02/12 02:52:07;;;;;;;;;2.00;0.00;;;;;-144.24;100.00;98133.03;5094395;27;45452;-74
2024/02/12 02:54:33;;;;;;;;;2.00;0.33;;;;;-144.24;100.00;98171.59;5092244;27;45635;-74
2024/02/12 02:56:59;;;;;;;;;2.00;0.67;;;;;-144.24;100.00;98157.38;5067482;27;47495;-73
2024/02/12 02:59:25;;;;;;;;;0.00;0.00;;;;;-144.24;100.00;98187.81;5089680;27;45608;-73
2024/02/12 03:01:51;;;;;;;;;0.00;0.00;;;;;-144.24;100.00;98319.72;5091234;27;45457;-72
2024/02/12 03:04:16;;;;;;;;;3.00;1.00;;;;;-144.24;100.00;98212.19;5091303;27;45654;-74
2024/02/12 03:06:42;;;;;;;;;2.33;0.00;;;;;-144.24;100.00;98145.22;5089243;27;46362;-73
2024/02/12 03:09:07;;;;;;;;;2.00;1.00;;;;;-144.24;100.00;97986.94;5084749;27;45347;-74
2024/02/12 03:11:33;;;;;;;;;1.33;0.00;;;;;-144.24;100.00;97958.53;5095696;27;45497;-73
2024/02/12 03:13:59;;;;;;;;;1.67;1.67;;;;;-144.24;100.00;98007.22;5091744;27;45213;-73
2024/02/12 03:16:24;;;;;;;;;1.33;0.67;;;;;-144.24;100.00;97719.09;5070793;27;75561;-73
2024/02/12 03:18:49;;;;;;;;;3.33;0.67;;;;;-144.24;100.00;97664.31;5088506;27;45347;-73
2024/02/12 03:21:19;;;;;;;;;2.33;0.00;;;;;-144.24;100.00;97579.09;5087685;27;45461;-74
2024/02/12 03:23:46;;;;;;;;;2.00;1.33;;;;;-144.24;100.00;97597.34;5090698;27;45540;-74
2024/02/12 03:26:11;;;;;;;;;3.00;2.00;;;;;-144.24;100.00;97552.72;5084665;27;46439;-73
2024/02/12 03:28:37;;;;;;;;;3.67;1.67;;;;;-144.24;100.00;97548.66;5095728;27;73962;-73
2024/02/12 03:31:03;;;;;;;;;1.00;0.33;;;;;-144.24;100.00;97591.28;5089229;27;45460;-74
2024/02/12 03:33:29;;;;;;;;;3.00;1.33;;;;;-144.24;100.00;97570.97;5090665;27;45446;-73
2024/02/12 03:35:55;;;;;;;;;2.00;0.33;;;;;-144.24;100.00;97644.03;5091000;27;75600;-73
2024/02/12 03:38:23;;;;;;;;;4.00;1.00;;;;;-144.24;100.00;97382.28;5090014;27;45536;-74
2024/02/12 03:40:49;;;;;;;;;6.67;1.00;;;;;-144.24;100.00;97217.97;5088701;27;45433;-74
2024/02/12 03:43:15;;;;;;;;;5.00;2.67;;;;;-144.24;100.00;97272.75;5068409;27;45299;-74
2024/02/12 03:45:44;;;;;;;;;1.33;1.00;;;;;-144.24;100.00;97179.41;5093059;27;46470;-73
2024/02/12 03:59:50;;;;;;;;;3.00;2.00;;;;;-144.24;100.00;97140.88;5086703;27;45600;-73
2024/02/12 04:01:51;;;;;;;;;3.67;1.67;;;;;-144.24;100.00;96761.50;5082361;27;45402;-73
2024/02/12 04:04:18;;;;;;;;;1.00;1.00;;;;;-144.24;100.00;96978.56;5093380;27;45386;-73
2024/02/12 04:06:43;;;;;;;;;4.00;1.00;;;;;-144.24;100.00;96960.31;5095473;27;46442;-73
2024/02/12 04:09:09;;;;;;;;;0.67;0.67;;;;;-144.24;100.00;96998.84;5091017;27;72679;-74
2024/02/12 04:11:42;;;;;;;;;1.33;1.33;;;;;-144.24;100.00;97011.03;5085575;27;45379;-73
2024/02/12 04:14:09;;;;;;;;;2.00;1.00;;;;;-144.24;100.00;96822.38;5087862;27;45469;-74
2024/02/12 04:16:38;;;;;;;;;4.00;1.00;;;;;-144.24;100.00;96921.78;5077913;27;45778;-74
2024/02/12 04:19:04;;;;;;;;;7.33;2.00;;;;;-144.24;100.00;96832.50;5086822;27;45479;-74
2024/02/12 04:21:32;;;;;;;;;2.67;1.00;;;;;-144.24;100.00;96875.13;5088311;27;59607;-73
2024/02/12 04:24:03;;;;;;;;;1.00;1.00;;;;;-144.24;100.00;96844.69;5088841;27;45483;-73
2024/02/12 04:26:30;;;;;;;;;2.33;1.00;;;;;-144.24;100.00;96935.97;5090405;27;47563;-74
2024/02/12 04:28:57;;;;;;;;;2.67;1.00;;;;;-144.24;100.00;96779.78;5093194;27;45501;-75
2024/02/12 04:31:23;;;;;;;;;3.33;2.33;;;;;-144.24;100.00;96903.50;5091225;27;45422;-74
2024/02/12 04:33:48;;;;;;;;;2.67;1.00;;;;;-144.24;100.00;96903.50;5085274;27;45539;-74
2024/02/12 04:36:16;;;;;;;;;7.00;1.33;;;;;-144.24;100.00;97023.19;5088077;27;71804;-74
2024/02/12 04:38:41;;;;;;;;;3.00;2.00;;;;;-144.24;100.00;96919.75;5071670;27;46436;-74
2024/02/12 04:41:07;;;;;;;;;6.00;1.00;;;;;-144.24;100.00;96867.00;5095113;27;45807;-74
2024/02/12 04:43:35;;;;;;;;;3.67;1.00;;;;;-144.24;100.00;96858.88;5090288;27;45277;-74
2024/02/12 04:46:01;;;;;;;;;2.00;0.00;;;;;-144.24;100.00;96789.91;5074304;27;46630;-73
2024/02/12 04:48:27;;;;;;;;;3.67;1.00;;;;;-144.24;100.00;96779.78;5085951;27;45366;-74
2024/02/12 04:50:53;;;;;;;;;2.00;1.00;;;;;-144.24;100.00;96840.63;5083024;27;45333;-74
2024/02/12 04:53:18;;;;;;;;;2.00;1.00;;;;;-144.24;100.00;96712.81;5087365;27;45423;-74
2024/02/12 04:55:43;;;;;;;;;2.00;1.33;;;;;-144.24;100.00;96747.31;5083772;27;45411;-74
2024/02/12 04:58:09;;;;;;;;;6.00;1.00;;;;;-144.24;100.00;96698.63;5090057;27;60188;-73
2024/02/12 05:00:34;;;;;;;;;4.67;0.00;;;;;-144.24;100.00;96656.03;5089655;27;45758;-73
2024/02/12 05:02:59;;;;;;;;;2.00;0.00;;;;;-144.24;100.00;96658.06;5094794;27;54387;-73
2024/02/12 05:05:27;;;;;;;;;3.00;0.00;;;;;-144.24;100.00;96607.34;5093321;27;54112;-74
2024/02/12 05:07:52;;;;;;;;;1.00;0.00;;;;;-144.24;100.00;96826.44;5094215;27;45473;-73
2024/02/12 05:10:20;;;;;;;;;0.00;0.00;;;;;-144.24;100.00;96895.41;5086179;27;45375;-73
2024/02/12 05:12:46;;;;;;;;;6.00;1.00;;;;;-144.24;100.00;96946.13;5088198;27;45222;-73
2024/02/12 05:15:12;;;;;;;;;0.00;0.00;;;;;-144.24;100.00;97088.13;5094713;27;46545;-73
2024/02/12 05:17:54;;;;;;;;;3.00;1.67;;;;;-144.24;100.00;97388.38;5079952;27;45438;-73
2024/02/12 05:23:09;;;;;;;;;4.33;1.00;;;;;-144.24;100.00;97686.63;5084356;27;45342;-73
2024/02/12 05:25:35;;;;;;;;;5.33;1.00;;;;;-144.24;100.00;97991.00;5087617;27;45760;-74
2024/02/12 05:28:01;;;;;;;;;1.00;1.00;;;;;-144.24;100.00;98102.59;5083469;27;45444;-73
2024/02/12 05:30:26;;;;;;;;;4.00;1.00;;;;;-144.24;100.00;98305.53;5085778;27;45377;-74
2024/02/12 05:32:52;;;;;;;;;2.00;1.00;;;;;-144.24;100.00;98459.75;5095418;27;57472;-73
2024/02/12 05:35:18;;;;;;;;;6.00;1.00;;;;;-144.24;100.00;98628.19;5090838;27;46463;-74
2024/02/12 05:37:43;;;;;;;;;6.33;1.00;;;;;-144.24;100.00;98540.94;5088538;27;45515;-73
2024/02/12 05:40:09;;;;;;;;;2.00;0.00;;;;;-144.24;100.00;98843.31;5082546;27;45525;-73
2024/02/12 05:42:36;;;;;;;;;3.33;1.00;;;;;-144.24;100.00;98892.03;5091904;27;45433;-73
2024/02/12 05:45:01;;;;;;;;;2.00;1.00;;;;;-144.24;100.00;99202.56;5092789;27;46666;-73
2024/02/12 05:47:27;;;;;;;;;1.33;1.00;;;;;-144.24;100.00;99436.00;5091679;27;61149;-73
2024/02/12 05:49:54;;;;;;;;;1.00;1.00;;;;;-144.24;100.00;99699.91;5089914;27;57311;-74
2024/02/12 05:52:20;;;;;;;;;0.00;0.00;;;;;-144.24;100.00;100024.72;5095447;27;45493;-74
2024/02/12 05:54:46;;;;;;;;;2.33;1.00;;;;;-144.24;100.00;100438.88;5096717;27;46944;-73
2024/02/12 05:57:12;;;;;;;;;0.33;0.33;;;;;-144.24;100.00;100558.69;5068461;27;45923;-74
2024/02/12 05:59:37;;;;;;;;;0.67;0.67;;;;;-144.24;100.00;100889.66;5093261;27;45432;-73
2024/02/12 06:02:03;;;;;;;;;0.67;0.67;;;;;-144.24;100.00;101224.72;5096418;27;45560;-73
2024/02/12 06:04:29;;;;;;;;;1.00;1.00;;;;;-144.24;100.00;101354.69;5085786;27;47604;-73
2024/02/12 06:06:55;;;;;;;;;5.67;0.33;;;;;-144.24;100.00;101649.16;5090379;27;45609;-75
2024/02/12 06:09:20;;;;;;;;;2.00;2.00;;;;;-144.24;100.00;101838.06;5093761;27;45415;-74
2024/02/12 06:11:46;;;;;;;;;3.00;1.00;;;;;-144.24;100.00;101919.31;5087554;27;45391;-73
2024/02/12 06:14:11;;;;;;;;;2.00;2.00;;;;;-144.24;100.00;101760.88;5083999;27;45613;-76
2024/02/12 06:16:37;;;;;;;;;1.67;1.00;;;;;-144.24;100.00;101758.84;5077453;27;56297;-77
2024/02/12 06:19:03;;;;;;;;;3.00;1.75;;;;;-144.24;100.00;101685.72;5061278;27;45517;-77
2024/02/12 06:21:28;;;;;;;;;6.00;2.00;;;;;-144.24;100.00;101472.47;5079194;27;45442;-76
2024/02/12 06:23:54;;;;;;;;;2.00;0.00;;;;;-144.24;100.00;101328.28;5079210;27;46643;-77
2024/02/12 06:26:19;;;;;;;;;3.33;0.00;;;;;-144.24;100.00;101184.09;5065855;27;45463;-74
2024/02/12 06:28:48;;;;;;;;;2.33;1.67;;;;;-144.24;100.00;101094.75;5081294;27;45465;-75
2024/02/12 06:31:16;;;;;;;;;2.00;2.00;;;;;-144.24;100.00;100940.41;5082075;27;46977;-74
2024/02/12 06:33:42;;;;;;;;;3.00;2.00;;;;;-144.24;100.00;100899.81;5094900;27;46478;-75
2024/02/12 06:36:08;;;;;;;;;1.00;1.00;;;;;-144.24;100.00;100881.53;5090797;27;45449;-76
2024/02/12 06:38:33;;;;;;;;;3.00;1.33;;;;;-144.24;100.00;100751.56;5066763;27;45552;-73
2024/02/12 06:41:00;;;;;;;;;2.33;2.00;;;;;-144.24;100.00;100641.94;5094338;27;56360;-74
2024/02/12 06:43:25;;;;;;;;;2.67;2.67;;;;;-144.24;100.00;100430.75;5074284;27;46767;-73
2024/02/12 06:45:50;;;;;;;;;3.67;2.33;;;;;-144.24;100.00;100237.88;5083901;27;45640;-75
2024/02/12 06:48:16;;;;;;;;;2.00;2.00;;;;;-144.24;100.00;99878.53;5087989;27;53432;-76
2024/02/12 06:50:41;;;;;;;;;2.33;2.33;;;;;-144.24;100.00;99795.31;5092947;27;45463;-74
2024/02/12 06:53:07;;;;;;;;;4.67;2.00;;;;;-144.24;100.00;99738.47;5087882;27;46492;-74
2024/02/12 06:55:33;;;;;;;;;6.00;2.00;;;;;-144.24;100.00;99572.00;5094071;27;45624;-74
2024/02/12 06:57:58;;;;;;;;;5.33;2.00;;;;;-144.24;100.00;99517.19;5089705;27;55517;-74
2024/02/12 07:00:24;;;;;;;;;7.33;2.33;;;;;-144.24;100.00;99507.06;5097534;27;45863;-73
2024/02/12 07:02:49;;;;;;;;;5.00;2.00;;;;;-144.24;100.00;99673.50;5092333;27;59496;-74
2024/02/12 07:05:17;;;;;;;;;1.00;1.00;;;;;-144.24;100.00;99766.88;5091243;27;45421;-74
2024/02/12 07:07:43;;;;;;;;;2.33;1.67;;;;;-144.24;100.00;99809.53;5089701;27;45227;-74
2024/02/12 07:10:11;;;;;;;;;1.33;1.00;;;;;-144.24;100.00;100024.72;5095119;27;45602;-73
2024/02/12 07:12:38;;;;;;;;;2.00;2.00;;;;;-144.24;100.00;100304.88;5095171;27;46548;-73
2024/02/12 07:15:05;;;;;;;;;6.33;2.00;;;;;-144.24;100.00;100402.34;5094055;27;45530;-73
2024/02/12 07:17:31;;;;;;;;;3.00;1.00;;;;;-144.24;100.00;100609.44;5070967;28;45283;-67
2024/02/12 07:19:56;;;;;;;;;3.00;2.00;;;;;-144.24;100.00;100796.25;5087179;27;58165;-67
2024/02/12 07:22:21;;;;;;;;;6.00;2.00;;;;;-144.24;100.00;101048.03;5082575;27;64121;-67
2024/02/12 07:24:49;;;;;;;;;3.00;1.00;;;;;-144.24;100.00;101163.78;5090731;27;45366;-68
2024/02/12 07:27:24;;;;;;;;;2.33;1.00;;;;;-144.24;100.00;101312.03;5093638;27;47219;-67
2024/02/12 07:29:49;;;;;;;;;3.00;1.67;;;;;-144.24;100.00;101496.84;5076736;27;46043;-68
2024/02/12 07:32:15;;;;;;;;;2.33;1.00;;;;;-144.24;100.00;101437.97;5096074;27;47019;-67
2024/02/12 07:34:41;;;;;;;;;4.25;1.25;;;;;-144.24;100.00;101669.47;5095016;27;45543;-68
2024/02/12 07:37:07;;;;;;;;;4.25;4.25;;;;;-144.24;100.00;101766.97;5098742;27;45471;-68
2024/02/12 07:39:32;;;;;;;;;5.00;2.00;;;;;-144.24;100.00;101634.97;5086197;27;45487;-67
2024/02/12 07:41:59;;;;;;;;;2.00;2.00;;;;;-144.24;100.00;101775.09;5065099;27;47542;-68
2024/02/12 07:44:25;;;;;;;;;5.00;1.67;;;;;-144.24;100.00;101844.16;5092524;27;45606;-67
2024/02/12 07:46:51;;;;;;;;;6.00;2.00;;;;;-144.24;100.00;101783.22;5094414;27;45465;-67
2024/02/12 07:49:19;;;;;;;;;5.33;2.00;;;;;-144.24;100.00;101734.47;5093969;27;45537;-68
2024/02/12 07:51:44;;;;;;;;;1.00;1.00;;;;;-144.24;100.00;101618.72;5098777;27;46222;-67
2024/02/12 07:54:10;;;;;;;;;2.67;2.67;;;;;-144.24;100.00;101596.38;5096974;27;45683;-67
2024/02/12 07:56:36;;;;;;;;;3.67;3.00;;;;;-144.24;100.00;101498.88;5098687;27;45443;-67
2024/02/12 07:59:02;;;;;;;;;4.33;2.00;;;;;-144.24;100.00;101423.75;5072507;27;45659;-68
2024/02/12 08:01:28;;;;;;;;;3.67;2.00;;;;;-144.24;100.00;101366.88;5098578;27;46428;-68
2024/02/12 08:03:54;;;;;;;;;5.50;5.50;;;;;-144.24;100.00;101391.25;5088389;27;45535;-67
2024/02/12 08:06:20;;;;;;;;;7.67;3.00;;;;;-144.24;100.00;101352.66;5098899;27;45340;-75
2024/02/12 08:08:47;;;;;;;;;3.00;3.00;;;;;-144.24;100.00;101413.59;5097563;27;45631;-74
2024/02/12 08:11:12;;;;;;;;;9.75;5.00;;;;;-144.24;100.00;101328.28;5097835;27;45713;-74
2024/02/12 08:13:38;;;;;;;;;9.50;3.00;;;;;-144.24;100.00;101108.97;5096119;27;45580;-73
2024/02/12 08:16:04;;;;;;;;;8.50;6.50;;;;;-144.24;100.00;101096.78;5091592;27;45631;-75
2024/02/12 08:18:30;;;;;;;;;3.00;3.00;;;;;-144.24;100.00;100966.81;5072779;27;46246;-76
2024/02/12 08:20:56;;;;;;;;;6.00;2.75;;;;;-144.24;100.00;100794.22;5094762;27;46330;-74
2024/02/12 08:23:22;;;;;;;;;3.67;3.67;;;;;-144.24;100.00;100761.72;5092349;27;46020;-73
2024/02/12 08:25:47;;;;;;;;;4.33;3.67;;;;;-144.24;100.00;100771.88;5093541;27;45923;-74
2024/02/12 08:28:13;;;;;;;;;7.50;3.75;;;;;-144.24;100.00;100782.03;5096737;27;54688;-75
2024/02/12 08:30:38;;;;;;;;;3.00;3.00;;;;;-144.24;100.00;100682.53;5098230;27;51616;-74
2024/02/12 08:33:04;;;;;;;;;3.00;3.00;;;;;-144.24;100.00;100879.50;5098196;27;45615;-75
2024/02/12 08:35:29;;;;;;;;;6.00;3.00;;;;;-144.24;100.00;100605.38;5093471;27;45294;-75
2024/02/12 08:37:55;;;;;;;;;3.25;3.00;;;;;-144.24;100.00;100365.78;5095282;27;45510;-74
2024/02/12 08:40:22;;;;;;;;;2.00;2.00;;;;;-144.24;100.00;100146.53;5095115;27;45748;-74
2024/02/12 08:42:50;;;;;;;;;9.33;2.00;;;;;-144.24;100.00;99852.16;5094638;27;45366;-74
2024/02/12 08:45:15;;;;;;;;;3.75;2.25;;;;;-144.24;100.00;99417.75;5095232;27;45475;-74
2024/02/12 08:47:41;;;;;;;;;5.67;3.00;;;;;-144.24;100.00;99247.22;5085977;27;45643;-74
2024/02/12 08:50:07;;;;;;;;;6.00;2.33;;;;;-144.24;100.00;98969.16;5088447;27;46269;-74
2024/02/12 08:52:33;;;;;;;;;3.67;2.00;;;;;-144.24;100.00;98861.59;5071821;27;45504;-74
2024/02/12 08:55:06;;;;;;;;;3.00;3.00;;;;;-144.24;100.00;98788.53;5092215;27;46022;-74
2024/02/12 08:57:31;;;;;;;;;6.67;5.33;;;;;-144.24;100.00;98384.66;5085973;27;45537;-74
2024/02/12 08:59:57;;;;;;;;;6.00;3.00;;;;;-144.24;100.00;98151.28;5092723;27;45850;-74
2024/02/12 09:02:23;;;;;;;;;6.00;4.00;;;;;-144.24;100.00;98120.84;5090077;27;45932;-75
2024/02/12 09:04:48;;;;;;;;;13.33;4.00;;;;;-144.24;100.00;97881.41;5095636;27;50421;-73
2024/02/12 09:07:14;;;;;;;;;6.00;4.00;;;;;-144.24;100.00;97656.19;5084236;27;55143;-73
2024/02/12 09:09:39;;;;;;;;;2.00;2.00;;;;;-144.24;100.00;97441.13;5096803;27;69194;-73
2024/02/12 09:12:07;;;;;;;;;4.00;3.00;;;;;-144.24;100.00;97165.22;5086866;27;45389;-73
2024/02/12 09:14:35;;;;;;;;;12.67;9.00;;;;;-144.24;100.00;97309.25;5097978;27;45493;-73
2024/02/12 09:17:00;;;;;;;;;4.67;3.33;;;;;-144.24;100.00;97082.03;5097978;27;45497;-73
2024/02/12 09:19:26;;;;;;;;;3.00;3.00;;;;;-144.24;100.00;97082.03;5095080;27;46087;-74
2024/02/12 09:21:52;;;;;;;;;8.33;4.67;;;;;-144.24;100.00;97272.75;5097228;27;45536;-74
2024/02/12 09:24:18;;;;;;;;;7.00;6.00;;;;;-144.24;100.00;97213.91;5097410;27;45683;-73
2024/02/12 09:26:43;;;;;;;;;5.67;5.00;;;;;-144.24;100.00;97049.56;5097930;27;45536;-73
2024/02/12 09:29:09;;;;;;;;;4.00;4.00;;;;;-144.24;100.00;97199.69;5089345;27;45666;-73
2024/02/12 09:31:34;;;;;;;;;6.00;3.00;;;;;-144.24;100.00;97027.25;5092934;27;45354;-73
2024/02/12 09:34:02;;;;;;;;;7.67;4.00;;;;;-144.24;100.00;97069.88;5089722;27;46324;-73
2024/02/12 09:36:27;;;;;;;;;4.33;3.67;;;;;-144.24;100.00;96948.16;5084884;27;45549;-73
2024/02/12 09:38:53;;;;;;;;;4.00;4.00;;;;;-144.24;100.00;96931.91;5089460;27;45837;-73
2024/02/12 09:41:26;;;;;;;;;3.00;3.00;;;;;-144.24;100.00;96641.84;5079974;27;64611;-73
2024/02/12 09:43:52;;;;;;;;;3.33;3.00;;;;;-144.24;100.00;96353.78;5080763;27;45327;-73
2024/02/12 09:46:19;;;;;;;;;5.00;3.33;;;;;-144.24;100.00;96353.78;5071309;27;45525;-74
2024/02/12 09:48:44;;;;;;;;;10.67;3.67;;;;;-144.24;100.00;96325.41;5087354;27;46114;-73
2024/02/12 09:51:12;;;;;;;;;7.00;7.00;;;;;-144.24;100.00;96207.75;5092065;27;45408;-73
2024/02/12 09:53:41;;;;;;;;;5.67;3.67;;;;;-144.24;100.00;96217.91;5073097;28;45509;-75
2024/02/12 09:56:07;;;;;;;;;9.67;5.00;;;;;-144.24;100.00;96226.00;5089153;27;45526;-73
2024/02/12 09:58:33;;;;;;;;;5.33;3.67;;;;;-144.24;100.00;96337.56;5084439;27;46099;-74
2024/02/12 10:01:01;;;;;;;;;9.33;4.67;;;;;-144.24;100.00;96299.03;5085935;27;45436;-73
2024/02/12 10:03:28;;;;;;;;;7.00;3.00;;;;;-144.24;100.00;96339.59;5067126;27;45520;-74
2024/02/12 10:05:53;;;;;;;;;6.33;4.00;;;;;-144.24;100.00;96471.44;5093697;27;45535;-74
2024/02/12 10:08:22;;;;;;;;;8.00;5.00;;;;;-144.24;100.00;96412.63;5086004;27;45901;-73
2024/02/12 10:10:48;;;;;;;;;4.00;4.00;;;;;-144.24;100.00;96270.63;5085114;27;45450;-74
2024/02/12 10:13:14;;;;;;;;;3.67;2.00;;;;;-144.24;100.00;96335.53;5090277;27;45516;-74
2024/02/12 10:15:40;;;;;;;;;5.67;4.33;;;;;-144.24;100.00;96315.25;5081070;27;45462;-74
2024/02/12 10:18:07;;;;;;;;;4.00;3.00;;;;;-144.24;100.00;96276.72;5089609;27;46744;-73
2024/02/12 10:20:32;;;;;;;;;3.00;3.00;;;;;-144.24;100.00;96337.56;5090858;27;45429;-73
2024/02/12 10:22:58;;;;;;;;;15.67;9.67;;;;;-144.24;100.00;96278.75;5086642;27;45836;-74
2024/02/12 10:25:23;;;;;;;;;17.00;14.00;;;;;-144.24;100.00;96337.56;5086321;27;47739;-73
2024/02/12 10:27:49;;;;;;;;;15.00;11.00;;;;;-144.24;100.00;96173.28;5090582;27;46600;-73
2024/02/12 10:30:16;;;;;;;;;7.33;6.33;;;;;-144.24;100.00;96501.88;5085127;27;45466;-74
2024/02/12 10:32:45;;;;;;;;;8.67;7.00;;;;;-144.24;100.00;96692.53;5086834;27;45395;-74
2024/02/12 10:35:12;;;;;;;;;8.00;4.00;;;;;-144.24;100.00;96984.66;5089347;27;45643;-74
2024/02/12 10:37:37;;;;;;;;;4.00;4.00;;;;;-144.24;100.00;97025.22;5072006;27;47419;-74
2024/02/12 10:40:12;;;;;;;;;4.33;3.00;;;;;-144.24;100.00;97211.88;5083969;27;55196;-74
2024/02/12 10:42:41;;;;;;;;;6.33;4.00;;;;;-144.24;100.00;97731.28;5086500;27;45497;-74
2024/02/12 10:45:09;;;;;;;;;5.00;5.00;;;;;-144.24;100.00;98068.09;5070269;27;45178;-74
2024/02/12 10:47:36;;;;;;;;;5.00;4.00;;;;;-144.24;100.00;98480.03;5087366;27;45643;-75
2024/02/12 10:50:03;;;;;;;;;4.00;3.00;;;;;-144.24;100.00;99109.22;5091237;27;45512;-74
2024/02/12 10:52:29;;;;;;;;;4.00;4.00;;;;;-144.24;100.00;99328.44;5087644;27;45401;-74
2024/02/12 10:57:44;;;;;;;;;4.33;4.33;;;;;-144.24;100.00;101517.16;5012557;28;46693;-73
2024/02/12 11:00:28;;;;;;;;;5.67;3.00;;;;;-144.24;100.00;102479.94;5015026;28;45501;-74
2024/02/12 11:02:54;;;;;;;;;4.67;4.00;;;;;-144.24;100.00;103093.47;5014055;28;45436;-74
2024/02/12 11:05:22;;;;;;;;;9.00;5.00;;;;;-144.24;100.00;103910.28;5015857;28;45395;-74
2024/02/12 11:07:48;;;;;;;;;5.00;5.00;;;;;-144.24;100.00;104200.88;4998249;28;47184;-74
2024/02/12 11:10:23;;;;;;;;;5.00;5.00;;;;;-144.24;100.00;104804.50;4997866;28;45540;-74
2024/02/12 11:12:49;;;;;;;;;10.00;4.00;;;;;-144.24;100.00;105054.53;5010224;28;45413;-74
2024/02/12 11:15:24;;;;;;;;;5.33;5.00;;;;;-144.24;100.00;104914.28;5015786;28;45228;-75
2024/02/12 11:17:50;;;;;;;;;6.00;4.00;;;;;-144.24;100.00;104946.81;4989093;28;46991;-77
2024/02/12 11:20:18;;;;;;;;;4.33;3.33;;;;;-144.24;100.00;104778.09;4996585;28;45547;-76